createdAt,value
2022-11-21T00:01:24.159Z,7.90
2022-11-21T00:03:51.390Z,7.90
2022-11-21T00:06:19.562Z,7.90
2022-11-21T00:08:47.135Z,7.90
2022-11-21T00:11:14.268Z,7.90
2022-11-21T00:13:41.240Z,7.90
2022-11-21T00:16:13.501Z,7.90
2022-11-21T00:18:40.670Z,8.00
2022-11-21T00:21:15.777Z,8.00
2022-11-21T00:23:43.910Z,8.00
2022-11-21T00:26:12.530Z,8.00
2022-11-21T00:28:39.659Z,8.00
2022-11-21T00:31:07.240Z,7.90
2022-11-21T00:33:39.107Z,7.90
2022-11-21T00:36:10.046Z,7.90
2022-11-21T00:38:37.578Z,8.00
2022-11-21T00:41:05.083Z,8.00
2022-11-21T00:43:32.333Z,8.00
2022-11-21T00:46:01.420Z,8.00
2022-11-21T00:48:29.794Z,8.00
2022-11-21T00:50:56.841Z,8.00
2022-11-21T00:53:23.805Z,8.10
2022-11-21T00:55:50.699Z,8.00
2022-11-21T00:58:17.682Z,8.00
2022-11-21T01:00:44.695Z,7.90
2022-11-21T01:03:11.691Z,7.80
2022-11-21T01:05:38.654Z,7.80
2022-11-21T01:08:05.961Z,7.70
2022-11-21T01:10:35.515Z,7.70
2022-11-21T01:13:02.851Z,7.60
2022-11-21T01:15:29.818Z,7.50
2022-11-21T01:17:56.775Z,7.50
2022-11-21T01:20:23.716Z,7.40
2022-11-21T01:22:50.713Z,7.40
2022-11-21T01:25:17.695Z,7.40
2022-11-21T01:27:44.692Z,7.40
2022-11-21T01:30:12.200Z,7.40
2022-11-21T01:32:39.150Z,7.40
2022-11-21T01:35:06.665Z,7.40
2022-11-21T01:37:33.631Z,7.40
2022-11-21T01:40:00.630Z,7.40
2022-11-21T01:42:27.598Z,7.40
2022-11-21T01:44:54.755Z,7.30
2022-11-21T01:47:22.860Z,7.30
2022-11-21T01:49:52.290Z,7.30
2022-11-21T01:52:27.513Z,7.30
2022-11-21T01:55:00.665Z,7.40
2022-11-21T01:57:29.297Z,7.40
2022-11-21T01:59:56.199Z,7.40
2022-11-21T02:02:27.378Z,7.40
2022-11-21T02:04:55.913Z,7.40
2022-11-21T02:07:24.639Z,7.40
2022-11-21T02:09:56.163Z,7.40
2022-11-21T02:12:28.808Z,7.40
2022-11-21T02:14:56.726Z,7.40
2022-11-21T02:17:24.262Z,7.30
2022-11-21T02:19:57.228Z,7.30
2022-11-21T02:22:27.295Z,7.30
2022-11-21T02:25:09.883Z,7.20
2022-11-21T02:27:36.940Z,7.10
2022-11-21T02:30:06.507Z,7.10
2022-11-21T02:32:48.181Z,7.00
2022-11-21T02:35:17.446Z,6.90
2022-11-21T02:38:03.517Z,6.90
2022-11-21T02:41:11.114Z,6.80
2022-11-21T02:43:38.076Z,6.70
2022-11-21T02:46:05.110Z,6.70
2022-11-21T02:48:32.258Z,6.60
2022-11-21T02:50:59.286Z,6.60
2022-11-21T02:53:26.412Z,6.60
2022-11-21T02:55:53.469Z,6.60
2022-11-21T02:58:20.657Z,6.50
2022-11-21T03:00:47.983Z,6.50
2022-11-21T03:03:15.111Z,6.50
2022-11-21T03:05:42.459Z,6.40
2022-11-21T03:08:10.285Z,6.40
2022-11-21T03:10:37.552Z,6.40
2022-11-21T03:13:04.579Z,6.30
2022-11-21T03:15:34.422Z,6.30
2022-11-21T03:18:03.168Z,6.40
2022-11-21T03:20:32.061Z,6.30
2022-11-21T03:22:59.232Z,6.30
2022-11-21T03:25:26.694Z,6.30
2022-11-21T03:27:54.719Z,6.20
2022-11-21T03:30:25.759Z,6.20
2022-11-21T03:32:56.630Z,6.20
2022-11-21T03:35:24.022Z,6.10
2022-11-21T03:37:50.990Z,6.10
2022-11-21T03:40:18.413Z,6.10
2022-11-21T03:42:45.649Z,6.00
2022-11-21T03:45:12.935Z,6.00
2022-11-21T03:47:40.606Z,6.00
2022-11-21T03:50:08.063Z,6.00
2022-11-21T03:52:35.128Z,6.00
2022-11-21T03:55:02.274Z,6.00
2022-11-21T03:57:29.346Z,6.00
2022-11-21T03:59:56.759Z,6.00
2022-11-21T04:02:23.842Z,5.90
2022-11-21T04:04:51.228Z,5.90
2022-11-21T04:07:18.230Z,5.90
2022-11-21T04:09:45.234Z,5.90
2022-11-21T04:12:12.682Z,5.80
2022-11-21T04:14:39.728Z,5.90
2022-11-21T04:17:06.912Z,5.80
2022-11-21T04:19:33.931Z,5.90
2022-11-21T04:22:01.031Z,5.90
2022-11-21T04:24:28.243Z,5.80
2022-11-21T04:26:55.891Z,5.80
2022-11-21T04:29:22.936Z,5.80
2022-11-21T04:31:50.011Z,5.90
2022-11-21T04:34:17.030Z,6.00
2022-11-21T04:36:44.037Z,6.10
2022-11-21T04:39:11.100Z,6.30
2022-11-21T04:41:38.037Z,6.30
2022-11-21T04:44:05.243Z,6.40
2022-11-21T04:46:32.837Z,6.40
2022-11-21T04:49:00.345Z,6.40
2022-11-21T04:51:27.428Z,6.30
2022-11-21T04:53:54.435Z,6.20
2022-11-21T04:56:21.542Z,6.00
2022-11-21T04:58:53.143Z,5.90
2022-11-21T05:01:20.341Z,5.80
2022-11-21T05:03:47.681Z,5.80
2022-11-21T05:06:14.645Z,5.80
2022-11-21T05:08:42.312Z,5.70
2022-11-21T05:11:38.434Z,5.70
2022-11-21T05:14:06.080Z,5.60
2022-11-21T05:16:34.204Z,5.60
2022-11-21T05:19:01.347Z,5.60
2022-11-21T05:21:28.474Z,5.50
2022-11-21T05:23:55.640Z,5.50
2022-11-21T05:26:22.857Z,5.40
2022-11-21T05:28:49.863Z,5.50
2022-11-21T05:31:16.778Z,5.50
2022-11-21T05:33:43.877Z,5.50
2022-11-21T05:36:10.968Z,5.40
2022-11-21T05:38:38.174Z,5.40
2022-11-21T05:41:05.214Z,5.40
2022-11-21T05:43:47.171Z,5.40
2022-11-21T05:46:19.602Z,5.40
2022-11-21T05:48:48.055Z,5.40
2022-11-21T05:51:19.811Z,5.40
2022-11-21T05:53:47.583Z,5.40
2022-11-21T05:56:17.215Z,5.40
2022-11-21T05:58:45.237Z,5.30
2022-11-21T06:01:14.711Z,5.30
2022-11-21T06:03:43.198Z,5.30
2022-11-21T06:06:17.658Z,5.30
2022-11-21T06:08:47.473Z,5.30
2022-11-21T06:11:16.477Z,5.20
2022-11-21T06:13:43.856Z,5.20
2022-11-21T06:16:13.255Z,5.20
2022-11-21T06:18:45.365Z,5.20
2022-11-21T06:21:17.731Z,5.20
2022-11-21T06:23:45.542Z,5.20
2022-11-21T06:26:14.747Z,5.20
2022-11-21T06:28:42.790Z,5.20
2022-11-21T06:31:15.696Z,5.20
2022-11-21T06:33:43.666Z,5.30
2022-11-21T06:36:13.517Z,5.30
2022-11-21T06:38:40.543Z,5.30
2022-11-21T06:41:12.442Z,5.40
2022-11-21T06:43:39.500Z,5.40
2022-11-21T06:46:07.066Z,5.40
2022-11-21T06:48:35.527Z,5.50
2022-11-21T06:51:21.853Z,5.50
2022-11-21T06:53:56.709Z,5.50
2022-11-21T06:56:32.798Z,5.60
2022-11-21T06:58:59.945Z,5.60
2022-11-21T07:01:28.348Z,5.70
2022-11-21T07:03:55.627Z,5.80
2022-11-21T07:06:23.589Z,5.90
2022-11-21T07:09:17.481Z,5.90
2022-11-21T07:11:41.614Z,6.30
2022-11-21T07:14:09.733Z,7.30
2022-11-21T07:16:36.957Z,8.30
2022-11-21T07:19:03.918Z,9.00
2022-11-21T07:21:31.091Z,9.70
2022-11-21T07:23:58.105Z,10.40
2022-11-21T07:26:25.084Z,11.00
2022-11-21T07:28:52.104Z,11.70
2022-11-21T07:31:19.132Z,12.50
2022-11-21T07:33:47.607Z,13.10
2022-11-21T07:36:14.704Z,13.80
2022-11-21T07:38:42.329Z,14.60
2022-11-21T07:41:10.227Z,15.20
2022-11-21T07:43:37.289Z,15.90
2022-11-21T07:46:04.275Z,16.20
2022-11-21T07:48:31.258Z,16.10
2022-11-21T07:50:58.363Z,15.90
2022-11-21T07:53:25.449Z,16.10
2022-11-21T07:55:52.410Z,16.40
2022-11-21T07:58:19.591Z,16.30
2022-11-21T08:00:46.540Z,16.40
2022-11-21T08:03:13.845Z,16.60
2022-11-21T08:05:44.114Z,16.80
2022-11-21T08:08:12.989Z,17.10
2022-11-21T08:10:42.285Z,17.10
2022-11-21T08:13:09.492Z,17.20
2022-11-21T08:15:37.026Z,17.30
2022-11-21T08:18:11.692Z,17.20
2022-11-21T08:20:38.811Z,17.00
2022-11-21T08:23:06.892Z,16.90
2022-11-21T08:25:41.251Z,16.80
2022-11-21T08:28:10.380Z,16.70
2022-11-21T08:30:39.545Z,16.50
2022-11-21T08:33:07.109Z,16.40
2022-11-21T08:35:37.728Z,16.40
2022-11-21T08:38:05.434Z,16.40
2022-11-21T08:40:33.524Z,16.50
2022-11-21T08:43:02.757Z,16.50
2022-11-21T08:45:30.687Z,16.70
2022-11-21T08:47:58.058Z,16.80
2022-11-21T08:50:25.221Z,16.80
2022-11-21T08:52:52.350Z,16.70
2022-11-21T08:55:19.627Z,16.60
2022-11-21T08:57:46.675Z,16.70
2022-11-21T09:00:14.480Z,16.90
2022-11-21T09:02:41.951Z,17.00
2022-11-21T09:05:09.753Z,17.00
2022-11-21T09:07:37.310Z,17.10
2022-11-21T09:10:04.795Z,17.30
2022-11-21T09:12:32.108Z,17.40
2022-11-21T09:15:17.592Z,17.80
2022-11-21T09:18:03.051Z,18.00
2022-11-21T09:20:34.744Z,18.30
2022-11-21T09:23:06.422Z,18.50
2022-11-21T09:25:34.333Z,18.50
2022-11-21T09:28:03.791Z,18.60
2022-11-21T09:30:31.095Z,19.10
2022-11-21T09:33:04.908Z,19.70
2022-11-21T09:35:31.912Z,20.40
2022-11-21T09:37:59.552Z,21.00
2022-11-21T09:40:27.594Z,21.60
2022-11-21T09:43:39.224Z,21.80
2022-11-21T09:46:18.627Z,21.80
2022-11-21T09:48:58.413Z,22.10
2022-11-21T09:51:29.769Z,22.40
2022-11-21T09:54:20.261Z,23.20
2022-11-21T09:56:47.857Z,23.90
2022-11-21T09:59:29.502Z,24.30
2022-11-21T10:01:56.602Z,24.60
2022-11-21T10:04:23.859Z,24.80
2022-11-21T10:07:22.472Z,24.60
2022-11-21T10:10:38.512Z,24.20
2022-11-21T10:13:46.600Z,23.80
2022-11-21T10:16:34.066Z,23.90
2022-11-21T10:19:16.090Z,24.70
2022-11-21T10:21:49.546Z,25.20
2022-11-21T10:24:19.182Z,25.40
2022-11-21T10:27:01.187Z,25.50
2022-11-21T10:29:37.230Z,25.40
2022-11-21T10:32:24.894Z,25.40
2022-11-21T10:35:13.413Z,25.30
2022-11-21T10:37:46.993Z,25.40
2022-11-21T10:40:16.902Z,25.50
2022-11-21T10:43:44.316Z,25.50
2022-11-21T10:46:11.346Z,25.50
2022-11-21T10:48:38.547Z,25.30
2022-11-21T10:51:38.571Z,25.00
2022-11-21T10:54:29.722Z,24.60
2022-11-21T10:57:15.991Z,24.50
2022-11-21T11:00:02.232Z,24.80
2022-11-21T11:02:29.139Z,24.80
2022-11-21T11:05:37.834Z,24.80
2022-11-21T11:08:14.227Z,25.20
2022-11-21T11:10:43.814Z,25.60
2022-11-21T11:13:50.920Z,25.80
2022-11-21T11:16:21.365Z,25.40
2022-11-21T11:19:17.351Z,25.30
2022-11-21T11:21:46.263Z,25.40
2022-11-21T11:24:13.171Z,25.80
2022-11-21T11:26:49.509Z,26.20
2022-11-21T11:29:20.084Z,26.50
2022-11-21T11:31:49.751Z,26.20
2022-11-21T11:34:17.815Z,25.90
2022-11-21T11:36:55.188Z,25.80
2022-11-21T11:39:39.591Z,25.80
2022-11-21T11:42:34.136Z,25.90
2022-11-21T11:45:39.058Z,25.80
2022-11-21T11:48:12.701Z,26.10
2022-11-21T11:50:42.368Z,26.40
2022-11-21T11:53:18.702Z,26.50
2022-11-21T11:55:55.988Z,26.70
2022-11-21T11:58:47.554Z,26.70
2022-11-21T12:01:29.486Z,26.60
2022-11-21T12:04:21.423Z,26.40
2022-11-21T12:10:03.427Z,25.80
2022-11-21T12:12:37.374Z,25.90
2022-11-21T12:15:50.583Z,25.70
2022-11-21T12:18:26.155Z,25.20
2022-11-21T12:21:09.166Z,24.90
2022-11-21T12:23:47.066Z,24.60
2022-11-21T12:26:20.104Z,24.70
2022-11-21T12:29:08.290Z,24.70
2022-11-21T12:31:43.845Z,24.80
2022-11-21T12:34:24.301Z,24.90
2022-11-21T12:37:22.154Z,25.00
2022-11-21T12:40:21.417Z,24.80
2022-11-21T12:43:25.497Z,24.60
2022-11-21T12:46:20.085Z,24.40
2022-11-21T12:49:21.445Z,24.40
2022-11-21T12:52:42.238Z,24.20
2022-11-21T12:55:15.515Z,23.80
2022-11-21T12:57:48.453Z,23.10
2022-11-21T13:00:21.215Z,22.80
2022-11-21T13:03:03.746Z,22.30
2022-11-21T13:05:37.133Z,22.10
2022-11-21T13:08:08.335Z,21.40
2022-11-21T13:10:35.588Z,20.60
2022-11-21T13:13:10.267Z,19.80
2022-11-21T13:16:11.691Z,19.20
2022-11-21T13:18:48.549Z,18.80
2022-11-21T13:21:46.036Z,18.50
2022-11-21T13:24:45.243Z,18.50
2022-11-21T13:27:38.938Z,18.50
2022-11-21T13:30:12.030Z,18.30
2022-11-21T13:32:43.578Z,17.90
2022-11-21T13:35:19.654Z,17.70
2022-11-21T13:37:49.652Z,17.30
2022-11-21T13:40:31.414Z,16.50
2022-11-21T13:43:32.508Z,15.90
2022-11-21T13:45:59.428Z,15.30
2022-11-21T13:48:34.593Z,14.80
2022-11-21T13:51:10.461Z,14.50
2022-11-21T13:54:09.090Z,14.00
2022-11-21T13:56:39.067Z,13.50
2022-11-21T13:59:15.154Z,13.10
2022-11-21T14:02:20.927Z,12.90
2022-11-21T14:05:33.529Z,12.70
2022-11-21T14:08:33.480Z,12.40
2022-11-21T14:11:30.024Z,12.40
2022-11-21T14:13:57.030Z,12.50
2022-11-21T14:16:49.395Z,12.70
2022-11-21T14:19:20.670Z,12.90
2022-11-21T14:21:49.207Z,13.00
2022-11-21T14:24:19.638Z,13.00
2022-11-21T14:26:49.916Z,13.00
2022-11-21T14:29:28.010Z,13.00
2022-11-21T14:31:56.114Z,13.00
2022-11-21T14:34:28.835Z,13.00
2022-11-21T14:36:59.692Z,12.90
2022-11-21T14:39:38.763Z,12.80
2022-11-21T14:42:15.574Z,12.80
2022-11-21T14:44:44.573Z,12.80
2022-11-21T14:47:25.853Z,12.70
2022-11-21T14:52:59.426Z,12.50
2022-11-21T14:55:31.019Z,12.40
2022-11-21T14:58:01.504Z,12.20
2022-11-21T15:00:58.051Z,12.00
2022-11-21T15:03:21.106Z,11.90
2022-11-21T15:06:06.905Z,11.70
2022-11-21T15:11:28.187Z,11.30
2022-11-21T15:14:17.287Z,11.20
2022-11-21T15:16:50.384Z,11.10
2022-11-21T15:19:21.729Z,11.00
2022-11-21T15:21:51.331Z,10.90
2022-11-21T15:24:30.122Z,10.80
2022-11-21T15:26:57.791Z,10.80
2022-11-21T15:29:25.058Z,10.70
2022-11-21T15:34:59.701Z,10.60
2022-11-21T15:37:27.864Z,10.60
2022-11-21T15:39:55.005Z,10.50
2022-11-21T15:42:34.136Z,10.40
2022-11-21T15:45:19.553Z,10.40
2022-11-21T15:47:47.508Z,10.30
2022-11-21T15:50:15.281Z,10.30
2022-11-21T15:52:50.631Z,10.30
2022-11-21T15:55:21.336Z,10.30
2022-11-21T15:57:15.365Z,10.60
2022-11-21T15:57:48.579Z,10.20
2022-11-21T16:00:17.420Z,10.10
2022-11-21T16:02:44.425Z,10.00
2022-11-21T16:05:13.124Z,9.90
2022-11-21T16:07:40.977Z,9.90
2022-11-21T16:10:15.374Z,9.80
2022-11-21T16:12:47.058Z,9.70
2022-11-21T16:15:14.326Z,9.60
2022-11-21T16:17:41.765Z,9.50
2022-11-21T16:20:09.267Z,9.50
2022-11-21T16:22:36.179Z,9.50
2022-11-21T16:25:03.266Z,9.40
2022-11-21T16:27:32.436Z,9.40
2022-11-21T16:29:59.431Z,9.30
2022-11-21T16:32:26.689Z,9.30
2022-11-21T16:34:54.769Z,9.30
2022-11-21T16:37:21.727Z,9.30
2022-11-21T16:39:52.079Z,9.40
2022-11-21T16:42:20.444Z,9.30
2022-11-21T16:44:48.162Z,9.30
2022-11-21T16:47:15.753Z,9.30
2022-11-21T16:49:48.434Z,9.30
2022-11-21T16:52:16.106Z,9.30
2022-11-21T16:54:43.101Z,9.20
2022-11-21T16:57:10.323Z,9.20
2022-11-21T16:59:37.320Z,9.20
2022-11-21T17:02:04.687Z,9.10
2022-11-21T17:04:32.112Z,9.10
2022-11-21T17:07:01.159Z,9.10
2022-11-21T17:09:28.504Z,9.10
2022-11-21T17:11:57.948Z,9.10
2022-11-21T17:14:25.016Z,9.10
2022-11-21T17:16:52.006Z,9.10
2022-11-21T17:19:19.023Z,9.10
2022-11-21T17:21:45.984Z,9.10
2022-11-21T17:24:13.568Z,9.10
2022-11-21T17:26:40.598Z,9.10
2022-11-21T17:29:07.803Z,9.10
2022-11-21T17:31:34.857Z,9.20
2022-11-21T17:34:02.048Z,9.20
2022-11-21T17:36:30.454Z,9.20
2022-11-21T17:38:57.499Z,9.30
2022-11-21T17:41:25.312Z,9.30
2022-11-21T17:43:59.743Z,9.30
2022-11-21T17:46:28.232Z,9.30
2022-11-21T17:48:59.180Z,9.30
2022-11-21T17:51:34.421Z,9.20
2022-11-21T17:54:02.669Z,9.20
2022-11-21T17:56:32.321Z,9.10
2022-11-21T17:58:59.960Z,9.10
2022-11-21T18:01:27.558Z,9.10
2022-11-21T18:04:10.290Z,9.10
2022-11-21T18:06:41.802Z,9.10
2022-11-21T18:09:13.638Z,9.00
2022-11-21T18:11:41.042Z,9.10
2022-11-21T18:14:10.317Z,9.10
2022-11-21T18:16:39.454Z,9.20
2022-11-21T18:19:07.716Z,9.20
2022-11-21T18:21:38.177Z,9.20
2022-11-21T18:24:05.399Z,9.20
2022-11-21T18:26:35.517Z,9.20
2022-11-21T18:31:50.964Z,9.20
2022-11-21T18:34:18.055Z,9.30
2022-11-21T18:36:45.030Z,9.30
2022-11-21T18:39:15.021Z,9.30
2022-11-21T18:41:42.910Z,9.40
2022-11-21T18:44:10.273Z,9.30
2022-11-21T18:46:38.772Z,9.30
2022-11-21T18:49:08.011Z,9.30
2022-11-21T18:51:36.547Z,9.40
2022-11-21T18:54:10.513Z,9.40
2022-11-21T18:56:38.790Z,9.40
2022-11-21T18:59:06.677Z,9.30
2022-11-21T19:01:35.825Z,9.30
2022-11-21T19:04:03.460Z,9.30
2022-11-21T19:06:30.466Z,9.40
2022-11-21T19:08:58.367Z,9.40
2022-11-21T19:11:27.843Z,9.40
2022-11-21T19:13:56.048Z,9.40
2022-11-21T19:16:24.979Z,9.40
2022-11-21T19:21:43.557Z,9.40
2022-11-21T19:24:15.129Z,9.50
2022-11-21T19:26:42.502Z,9.50
2022-11-21T19:29:09.836Z,9.60
2022-11-21T19:31:42.998Z,9.60
2022-11-21T19:34:15.527Z,9.60
2022-11-21T19:36:43.121Z,9.60
2022-11-21T19:39:10.255Z,9.60
2022-11-21T19:41:37.476Z,9.60
2022-11-21T19:44:04.506Z,9.60
2022-11-21T19:46:37.163Z,9.60
2022-11-21T19:49:06.587Z,9.60
2022-11-21T19:51:41.837Z,9.60
2022-11-21T19:54:11.190Z,9.70
2022-11-21T19:56:38.184Z,9.70
2022-11-21T19:59:05.593Z,9.70
2022-11-21T20:01:34.892Z,9.70
2022-11-21T20:04:04.582Z,9.70
2022-11-21T20:06:37.005Z,9.60
2022-11-21T20:09:15.740Z,9.60
2022-11-21T20:11:45.424Z,9.60
2022-11-21T20:14:21.517Z,9.60
2022-11-21T20:16:50.105Z,9.50
2022-11-21T20:19:19.233Z,9.50
2022-11-21T20:21:47.177Z,9.50
2022-11-21T20:24:14.770Z,9.50
2022-11-21T20:26:42.499Z,9.60
2022-11-21T20:29:13.242Z,9.60
2022-11-21T20:31:40.398Z,9.70
2022-11-21T20:34:12.598Z,9.70
2022-11-21T20:36:40.350Z,9.70
2022-11-21T20:39:18.553Z,9.70
2022-11-21T20:41:46.410Z,9.80
2022-11-21T20:47:10.382Z,9.80
2022-11-21T20:49:37.578Z,9.80
2022-11-21T20:54:55.411Z,9.80
2022-11-21T20:57:43.615Z,9.80
2022-11-21T21:00:11.898Z,9.90
2022-11-21T21:02:38.835Z,10.00
2022-11-21T21:05:06.263Z,10.00
2022-11-21T21:07:35.148Z,10.10
2022-11-21T21:10:02.643Z,10.20
2022-11-21T21:12:31.331Z,10.10
2022-11-21T21:14:58.375Z,10.20
2022-11-21T21:17:25.568Z,10.20
2022-11-21T21:19:57.890Z,10.20
2022-11-21T21:22:25.027Z,10.20
2022-11-21T21:24:51.943Z,10.10
2022-11-21T21:27:25.575Z,10.10
2022-11-21T21:29:53.457Z,10.10
2022-11-21T21:32:47.566Z,10.10
2022-11-21T21:35:17.690Z,10.00
2022-11-21T21:37:47.089Z,10.00
2022-11-21T21:40:16.518Z,10.00
2022-11-21T21:42:43.441Z,10.00
2022-11-21T21:45:10.892Z,10.00
2022-11-21T21:47:38.191Z,10.00
2022-11-21T21:50:05.528Z,10.00
2022-11-21T21:52:32.511Z,10.00
2022-11-21T21:54:59.433Z,10.00
2022-11-21T21:57:26.353Z,10.00
2022-11-21T21:59:53.326Z,9.90
2022-11-21T22:02:20.297Z,9.90
2022-11-21T22:04:51.805Z,9.80
2022-11-21T22:07:19.137Z,9.80
2022-11-21T22:09:46.080Z,9.80
2022-11-21T22:12:14.127Z,9.80
2022-11-21T22:14:41.080Z,9.80
2022-11-21T22:17:08.198Z,9.70
2022-11-21T22:19:35.187Z,9.80
2022-11-21T22:22:02.085Z,9.70
2022-11-21T22:24:29.041Z,9.70
2022-11-21T22:26:56.024Z,9.70
2022-11-21T22:29:23.152Z,9.70
2022-11-21T22:31:50.959Z,9.70
2022-11-21T22:34:18.065Z,9.70
2022-11-21T22:36:46.708Z,9.80
2022-11-21T22:39:13.915Z,9.80
2022-11-21T22:41:40.858Z,9.80
2022-11-21T22:44:07.779Z,9.80
2022-11-21T22:46:34.836Z,9.80
2022-11-21T22:49:01.802Z,9.80
2022-11-21T22:51:29.917Z,9.80
2022-11-21T22:53:57.661Z,9.80
2022-11-21T22:56:25.762Z,9.80
2022-11-21T22:58:52.771Z,9.80
2022-11-21T23:01:22.246Z,9.80
2022-11-21T23:03:50.302Z,9.80
2022-11-21T23:06:20.433Z,9.80
2022-11-21T23:08:47.950Z,9.80
2022-11-21T23:11:40.973Z,9.80
2022-11-21T23:14:44.663Z,9.80
2022-11-21T23:17:12.190Z,9.80
2022-11-21T23:19:39.180Z,9.80
2022-11-21T23:22:34.073Z,9.70
2022-11-21T23:25:01.059Z,9.80
2022-11-21T23:27:28.014Z,9.70
2022-11-21T23:29:54.903Z,9.80
2022-11-21T23:32:21.862Z,9.80
2022-11-21T23:35:00.560Z,9.80
2022-11-21T23:37:29.597Z,9.80
2022-11-21T23:39:56.536Z,9.80
2022-11-21T23:42:23.490Z,9.80
2022-11-21T23:44:50.525Z,9.80
2022-11-21T23:47:17.425Z,9.80
2022-11-21T23:49:52.114Z,9.90
2022-11-21T23:52:19.071Z,9.90
2022-11-21T23:54:46.023Z,9.80
2022-11-21T23:57:33.334Z,9.80
